Archival Weather

Heathrow

London, United Kingdom (EGLL)

Report from: Tuesday, June 18, 2024 3:50 AM BST
Current time: Monday, July 22, 2024 11:25 AM BST

Current weather – Weather history – Daily summaries
Weather forecast

Temperature13.0°C (55.4°F)
Dew point10.0°C (50.0°F)
Winds 2 kts (1 m/s, 2.3 mph) North (350°)
Visibility6.2 mi. (10 km)
Clouds Sky clear
Altimeter29.91 in.Hg (1013 mB)
Relative humidity82 %
Density altitude-55 ft. (-17 m)
Remarks Fully automated report
No clouds detected
No significant changes expected in the next two hours
Flight conditions Visual Meteorological Conditions
Raw dataEGLL 180250Z AUTO 35002KT 9999 NCD 13/10 Q1013 NOSIG
An error has occurred. This application may no longer respond until reloaded. Reload 🗙